Time;durP1;ratioP1;P1;durP2;ratioP2;P2;SDS_P1;SDS_P2;PMS_P1;PMS_P2;Temp;Humidity;BMP_temperature;BMP_pressure;BME280_temperature;BME280_humidity;BME280_pressure;Samples;Min_cycle;Max_cycle;Signal;HPM_P1;HPM_P2
2023/09/26 00:00:20;;;;;;;12.80;5.38;;;;;;;19.56;63.30;94947.91;4160087;28;20548;-67
2023/09/26 00:02:22;;;;;;;;;;;;;;;19.60;63.32;94952.59;4155295;28;20708;-69
2023/09/26 00:04:24;;;;;;;10.50;6.05;;;;;;;19.61;63.12;94943.59;4152778;28;19936;-68
2023/09/26 00:06:27;;;;;;;14.73;5.50;;;;;;;19.58;63.25;94946.66;4168630;28;20053;-69
2023/09/26 00:08:28;;;;;;;16.20;6.47;;;;;;;19.52;63.39;94947.50;4161697;28;20129;-68
2023/09/26 00:10:31;;;;;;;15.65;5.63;;;;;;;19.50;63.64;94946.09;4160375;28;20543;-69
2023/09/26 00:12:36;;;;;;;13.70;6.05;;;;;;;19.50;63.56;94946.88;4160834;28;20057;-69
2023/09/26 00:14:37;;;;;;;16.65;6.65;;;;;;;19.52;63.64;94947.50;4175367;28;20579;-69
2023/09/26 00:16:39;;;;;;;12.90;6.13;;;;;;;19.43;63.87;94946.09;4164543;28;20129;-68
2023/09/26 00:18:42;;;;;;;16.65;6.72;;;;;;;19.45;63.88;94944.06;4174038;28;20051;-68
2023/09/26 00:20:44;;;;;;;16.77;6.85;;;;;;;19.44;64.19;94939.75;4167134;28;20063;-68
2023/09/26 00:22:46;;;;;;;14.50;5.88;;;;;;;19.43;64.18;94938.13;4162600;28;20049;-67
2023/09/26 00:24:48;;;;;;;15.15;5.78;;;;;;;19.42;63.99;94936.47;4160001;28;20050;-68
2023/09/26 00:26:50;;;;;;;12.00;6.05;;;;;;;19.44;64.15;94937.09;4163387;28;20046;-68
2023/09/26 00:28:52;;;;;;;15.48;6.13;;;;;;;19.40;64.17;94942.03;4164081;28;20692;-69
2023/09/26 00:30:56;;;;;;;13.75;6.18;;;;;;;19.41;64.38;94940.19;4175477;28;20055;-70
2023/09/26 00:32:58;;;;;;;19.90;6.55;;;;;;;19.43;64.32;94938.13;4162404;28;20054;-69
2023/09/26 00:35:01;;;;;;;14.13;6.93;;;;;;;19.39;64.47;94942.22;4171270;28;20126;-69
2023/09/26 00:37:02;;;;;;;13.90;6.67;;;;;;;19.30;64.73;94938.16;4169513;28;20487;-68
2023/09/26 00:39:04;;;;;;;11.70;6.00;;;;;;;19.14;65.29;94945.50;4155818;28;20914;-68
2023/09/26 00:41:07;;;;;;;8.82;5.85;;;;;;;19.11;65.65;94940.63;4162541;28;20317;-67
2023/09/26 00:43:09;;;;;;;10.82;6.57;;;;;;;19.17;65.53;94942.47;4164825;28;20478;-69
2023/09/26 00:45:12;;;;;;;13.43;6.35;;;;;;;19.20;65.12;94933.25;4170792;28;20099;-68
2023/09/26 00:47:16;;;;;;;17.10;6.47;;;;;;;19.22;64.84;94940.00;4166194;28;20135;-69
2023/09/26 00:49:19;;;;;;;13.38;6.00;;;;;;;19.15;65.05;94936.53;4164546;28;20064;-68
2023/09/26 00:51:20;;;;;;;12.10;6.13;;;;;;;19.12;64.47;94936.97;4162675;28;20134;-70
2023/09/26 00:53:23;;;;;;;18.08;5.82;;;;;;;19.10;64.19;94943.47;4156122;28;20514;-67
2023/09/26 00:55:26;;;;;;;12.52;6.43;;;;;;;19.08;64.27;94943.72;4161239;28;20132;-68
2023/09/26 00:57:28;;;;;;;16.88;6.35;;;;;;;19.08;63.62;94942.88;4170740;28;20175;-68
2023/09/26 00:59:31;;;;;;;16.52;5.78;;;;;;;19.11;63.79;94945.13;4163814;28;20136;-69
2023/09/26 01:01:34;;;;;;;13.98;6.10;;;;;;;19.13;63.71;94949.22;4167739;28;20041;-69
2023/09/26 01:03:37;;;;;;;11.70;5.90;;;;;;;19.12;63.63;94942.28;4169406;28;20056;-68
2023/09/26 01:05:39;;;;;;;16.10;6.18;;;;;;;19.10;63.81;94944.31;4177815;28;20170;-70
2023/09/26 01:07:41;;;;;;;9.65;5.65;;;;;;;19.07;63.68;94946.56;4177632;28;20140;-69
2023/09/26 01:09:43;;;;;;;10.07;5.45;;;;;;;18.96;63.88;94940.03;4177804;28;20128;-68
2023/09/26 01:11:44;;;;;;;13.68;5.82;;;;;;;18.96;63.98;94940.84;4165881;28;20132;-71
2023/09/26 01:13:46;;;;;;;14.00;5.80;;;;;;;18.99;63.91;94936.94;4149958;28;20511;-69
2023/09/26 01:15:48;;;;;;;12.82;6.43;;;;;;;19.00;63.76;94939.41;4148114;28;20041;-69
2023/09/26 01:17:50;;;;;;;13.68;5.80;;;;;;;19.03;63.71;94936.34;4154039;28;20465;-67
2023/09/26 01:19:52;;;;;;;11.50;5.50;;;;;;;19.02;63.46;94931.25;4164146;28;20099;-68
2023/09/26 01:21:53;;;;;;;12.43;5.35;;;;;;;19.03;63.28;94938.19;4159854;28;20407;-69
2023/09/26 01:23:58;;;;;;;13.20;5.25;;;;;;;19.03;63.06;94933.69;4151972;28;20132;-67
2023/09/26 01:26:00;;;;;;;16.30;5.50;;;;;;;19.08;63.27;94934.91;4159301;28;20050;-67
2023/09/26 01:28:08;;;;;;;11.25;5.57;;;;;;;19.04;63.08;94937.16;4178918;28;20167;-68
2023/09/26 01:30:11;;;;;;;13.02;5.90;;;;;;;19.01;63.81;94930.44;4177515;28;20747;-69
2023/09/26 01:32:14;;;;;;;11.90;5.70;;;;;;;19.07;63.39;94933.28;4170109;28;20049;-67
2023/09/26 01:34:17;;;;;;;14.35;6.57;;;;;;;19.10;63.69;94933.69;4161747;28;20286;-67
2023/09/26 01:36:19;;;;;;;12.68;5.88;;;;;;;19.09;63.82;94932.06;4164404;28;20119;-68
2023/09/26 01:38:23;;;;;;;12.18;6.45;;;;;;;19.14;63.80;94934.88;4151575;28;20060;-67
2023/09/26 01:40:24;;;;;;;13.20;5.95;;;;;;;19.17;63.82;94929.19;4158720;28;20136;-70
2023/09/26 01:42:27;;;;;;;14.77;6.97;;;;;;;19.18;64.05;94936.13;4157518;28;20046;-68
2023/09/26 01:44:29;;;;;;;14.73;6.40;;;;;;;19.09;64.39;94932.06;4162459;28;20083;-68
2023/09/26 01:46:30;;;;;;;16.65;6.90;;;;;;;19.05;64.18;94925.50;4162178;28;20103;-67
2023/09/26 01:48:32;;;;;;;14.90;6.22;;;;;;;18.97;64.52;94929.22;4161302;28;20437;-68
2023/09/26 01:50:37;;;;;;;19.08;7.40;;;;;;;18.88;64.63;94934.91;4163238;28;20171;-68
2023/09/26 01:52:40;;;;;;;15.32;6.50;;;;;;;18.70;65.06;94936.31;4157142;28;20123;-68
2023/09/26 01:54:41;;;;;;;14.18;6.82;;;;;;;18.64;65.20;94939.78;4161904;28;20057;-68
2023/09/26 01:56:44;;;;;;;13.48;6.22;;;;;;;18.49;65.66;94934.66;4159179;28;20544;-68
2023/09/26 01:58:45;;;;;;;14.05;6.55;;;;;;;18.51;65.72;94940.59;4154061;28;20071;-69
2023/09/26 02:00:47;;;;;;;11.93;6.45;;;;;;;18.52;65.66;94955.50;4164974;28;20059;-69
2023/09/26 02:02:51;;;;;;;17.10;7.03;;;;;;;18.52;66.10;94941.41;4170901;28;20641;-69
2023/09/26 02:04:53;;;;;;;17.73;6.60;;;;;;;18.52;65.93;94947.53;4157392;28;20458;-66
2023/09/26 02:06:55;;;;;;;12.95;6.25;;;;;;;18.53;65.89;94956.31;4162367;28;20524;-67
2023/09/26 02:08:56;;;;;;;9.32;6.10;;;;;;;18.54;66.14;94948.16;4168251;28;20507;-68
2023/09/26 02:10:58;;;;;;;14.75;6.82;;;;;;;18.60;65.90;94951.81;4165522;28;20638;-70
2023/09/26 02:13:00;;;;;;;16.25;6.60;;;;;;;18.65;65.57;94938.78;4164983;28;20045;-68
2023/09/26 02:15:05;;;;;;;18.63;6.60;;;;;;;18.70;65.33;94944.28;4162272;28;20447;-68
2023/09/26 02:17:06;;;;;;;17.50;6.45;;;;;;;18.73;65.28;94945.72;4163727;28;20563;-68
2023/09/26 02:19:09;;;;;;;13.48;7.03;;;;;;;18.80;64.98;94951.88;4146849;28;20080;-69
2023/09/26 02:21:20;;;;;;;15.80;6.65;;;;;;;18.87;64.97;94946.56;4154813;28;20053;-68
2023/09/26 02:23:21;;;;;;;17.70;7.20;;;;;;;18.90;64.81;94946.16;4170258;28;20495;-68
2023/09/26 02:25:23;;;;;;;16.52;7.30;;;;;;;18.95;64.52;94941.03;4172128;28;20103;-68
2023/09/26 02:27:25;;;;;;;15.38;6.63;;;;;;;18.91;64.10;94935.34;4165960;28;20079;-68
2023/09/26 02:29:28;;;;;;;17.33;7.07;;;;;;;18.80;64.37;94939.44;4175015;28;20053;-68
2023/09/26 02:31:30;;;;;;;14.75;6.10;;;;;;;18.75;64.47;94941.81;4174207;28;20059;-67
2023/09/26 02:33:32;;;;;;;17.92;6.78;;;;;;;18.67;64.80;94939.41;4169214;28;20629;-69
2023/09/26 02:35:33;;;;;;;17.83;6.03;;;;;;;18.69;64.72;94937.34;4165982;28;20049;-69
2023/09/26 02:37:35;;;;;;;19.52;6.18;;;;;;;18.69;64.57;94925.91;4170001;28;20057;-68
2023/09/26 02:39:38;;;;;;;17.48;6.75;;;;;;;18.62;64.57;94926.72;4170294;28;20128;-68
2023/09/26 02:41:40;;;;;;;11.35;7.05;;;;;;;18.57;65.31;94926.50;4163850;28;20447;-68
2023/09/26 02:43:42;;;;;;;12.00;6.47;;;;;;;18.54;65.00;94937.53;4160870;28;20045;-69
2023/09/26 02:45:44;;;;;;;17.27;6.15;;;;;;;18.41;65.47;94930.38;4161263;28;20045;-69
2023/09/26 02:47:46;;;;;;;13.40;6.60;;;;;;;18.40;65.52;94935.88;4165548;28;20096;-68
2023/09/26 02:49:47;;;;;;;12.88;6.72;;;;;;;18.31;65.52;94931.78;4167861;28;20045;-67
2023/09/26 02:51:49;;;;;;;14.63;6.47;;;;;;;18.30;65.21;94936.25;4159894;28;20045;-68
2023/09/26 02:53:51;;;;;;;16.20;6.75;;;;;;;18.37;65.05;94938.94;4148703;28;20076;-69
2023/09/26 02:55:53;;;;;;;21.30;6.63;;;;;;;18.38;64.83;94936.06;4166870;28;20123;-67
2023/09/26 02:57:55;;;;;;;18.08;6.13;;;;;;;18.38;63.67;94936.06;4170176;28;20511;-66
2023/09/26 02:59:57;;;;;;;12.75;6.15;;;;;;;18.39;63.29;94936.88;4168618;28;20425;-69
2023/09/26 03:01:59;;;;;;;13.15;6.32;;;;;;;18.35;63.17;94939.16;4165086;28;20046;-68
2023/09/26 03:04:01;;;;;;;18.38;6.53;;;;;;;18.37;62.79;94931.81;4160687;28;20132;-70
2023/09/26 03:06:03;;;;;;;16.30;5.80;;;;;;;18.42;62.37;94947.09;4161898;28;20491;-69
2023/09/26 03:08:06;;;;;;;11.75;5.40;;;;;;;18.48;62.34;94943.66;4160243;28;20053;-69
2023/09/26 03:10:08;;;;;;;9.35;5.53;;;;;;;18.50;62.19;94948.75;4170512;28;20057;-69
2023/09/26 03:12:10;;;;;;;13.63;5.95;;;;;;;18.48;61.67;94943.66;4170340;28;20113;-70
2023/09/26 03:14:12;;;;;;;16.80;5.40;;;;;;;18.46;61.40;94944.88;4171618;28;20057;-68
2023/09/26 03:16:14;;;;;;;15.73;5.90;;;;;;;18.49;61.23;94942.63;4160436;28;20391;-67
2023/09/26 03:18:16;;;;;;;17.38;5.35;;;;;;;18.54;61.37;94949.97;4172296;28;20046;-66
2023/09/26 03:20:18;;;;;;;13.32;5.47;;;;;;;18.55;61.17;94951.63;4165062;28;20427;-67
2023/09/26 03:22:20;;;;;;;13.98;6.22;;;;;;;18.55;61.74;94947.13;4164683;28;20127;-67
2023/09/26 03:24:22;;;;;;;20.20;7.10;;;;;;;18.57;61.66;94949.59;4159036;28;20118;-68
2023/09/26 03:26:23;;;;;;;17.05;6.90;;;;;;;18.52;61.77;94952.00;4172099;28;20049;-68
2023/09/26 03:28:25;;;;;;;18.63;6.68;;;;;;;18.46;62.34;94952.84;4161329;28;20111;-68
2023/09/26 03:30:29;;;;;;;17.90;6.32;;;;;;;18.45;62.31;94951.19;4172132;28;20478;-69
2023/09/26 03:32:30;;;;;;;21.10;6.15;;;;;;;18.35;62.42;94951.59;4174558;28;20044;-68
2023/09/26 03:34:33;;;;;;;15.90;6.05;;;;;;;18.35;62.41;94947.09;4159537;28;20657;-68
2023/09/26 03:36:38;;;;;;;18.85;6.20;;;;;;;18.29;62.57;94947.91;4153764;28;20053;-69
2023/09/26 03:38:40;;;;;;;11.55;5.88;;;;;;;18.37;62.33;94953.03;4157431;28;20135;-69
2023/09/26 03:40:41;;;;;;;14.18;5.78;;;;;;;18.32;62.27;94954.63;4158955;28;20067;-70
2023/09/26 03:42:43;;;;;;;11.70;5.50;;;;;;;18.26;62.12;94956.25;4164397;28;20133;-68
2023/09/26 03:44:45;;;;;;;12.48;5.43;;;;;;;18.15;62.36;94954.19;4156150;28;20049;-68
2023/09/26 03:46:47;;;;;;;16.50;5.75;;;;;;;18.15;62.55;94952.34;4161360;28;20145;-69
2023/09/26 03:48:49;;;;;;;11.30;5.53;;;;;;;18.16;62.08;94953.19;4160798;28;20099;-67
2023/09/26 03:50:51;;;;;;;12.73;5.72;;;;;;;18.14;61.49;94960.50;4150075;28;20120;-68
2023/09/26 03:52:53;;;;;;;11.77;5.55;;;;;;;18.20;61.40;94955.22;4156327;28;20663;-69
2023/09/26 03:54:55;;;;;;;12.93;5.75;;;;;;;18.31;60.78;94955.66;4156373;28;20053;-69
2023/09/26 03:56:57;;;;;;;18.08;6.10;;;;;;;18.32;60.54;94959.94;4160198;28;20064;-70
2023/09/26 03:58:59;;;;;;;16.88;5.32;;;;;;;18.30;59.85;94965.44;4156181;28;20408;-68
2023/09/26 04:01:30;;;;;;;17.88;5.40;;;;;;;18.35;59.48;94967.50;4157871;28;20389;-70
2023/09/26 04:03:32;;;;;;;15.25;5.60;;;;;;;18.39;59.20;94963.41;4163918;28;20084;-71
2023/09/26 04:05:33;;;;;;;12.65;4.85;;;;;;;18.43;59.12;94969.94;4164705;28;20056;-72
2023/09/26 04:07:36;;;;;;;14.45;6.07;;;;;;;18.46;58.72;94968.75;4177154;28;20110;-72
2023/09/26 04:09:40;;;;;;;12.13;5.55;;;;;;;18.48;58.76;94966.72;4174989;28;20049;-70
2023/09/26 04:11:42;;;;;;;10.95;5.43;;;;;;;18.48;58.90;94969.38;4165078;28;20446;-71
2023/09/26 04:13:46;;;;;;;20.55;5.18;;;;;;;18.53;58.23;94964.28;4176203;28;20371;-69
2023/09/26 04:15:52;;;;;;;11.73;5.00;;;;;;;18.56;57.35;94971.81;4177835;28;20563;-71
2023/09/26 04:17:54;;;;;;;15.20;5.45;;;;;;;18.54;57.20;94960.59;4174291;28;20049;-71
2023/09/26 04:19:57;;;;;;;13.18;5.50;;;;;;;18.58;57.43;94972.44;4177614;28;20050;-70
2023/09/26 04:21:59;;;;;;;12.85;4.90;;;;;;;18.57;57.26;94965.50;4164470;28;20056;-70
2023/09/26 04:24:04;;;;;;;18.83;5.78;;;;;;;18.59;56.73;94971.44;4164003;28;20068;-70
2023/09/26 04:26:14;;;;;;;16.55;5.40;;;;;;;18.59;57.16;94977.53;4175814;28;20057;-69
2023/09/26 04:28:16;;;;;;;22.58;5.80;;;;;;;18.59;56.83;94968.78;4170144;28;20057;-69
2023/09/26 04:30:18;;;;;;;20.05;5.72;;;;;;;18.60;56.80;94975.69;4173542;28;20131;-71
2023/09/26 04:32:20;;;;;;;17.63;5.18;;;;;;;18.57;56.40;94970.81;4149708;28;20420;-70
2023/09/26 04:34:26;;;;;;;21.67;5.70;;;;;;;18.58;56.65;94967.97;4175346;28;20758;-70
2023/09/26 04:36:30;;;;;;;18.02;5.00;;;;;;;18.58;56.55;94973.28;4179912;28;20415;-69
2023/09/26 04:38:32;;;;;;;18.02;4.95;;;;;;;18.61;56.07;94974.69;4179913;28;20056;-73
2023/09/26 04:40:34;;;;;;;11.27;4.45;;;;;;;18.63;55.92;94970.81;4177841;28;20049;-69
2023/09/26 04:42:59;;;;;;;19.05;5.18;;;;;;;18.63;55.60;94970.00;4176070;28;20042;-69
2023/09/26 04:45:02;;;;;;;22.00;5.63;;;;;;;18.64;55.36;94971.63;4163198;28;20046;-69
2023/09/26 04:47:04;;;;;;;27.73;5.57;;;;;;;18.70;55.29;94965.50;4152471;28;20056;-70
2023/09/26 04:49:06;;;;;;;24.52;5.50;;;;;;;18.72;54.65;94975.94;4150267;28;20058;-69
2023/09/26 04:51:09;;;;;;;16.45;5.32;;;;;;;18.68;54.82;94982.66;4157224;28;20522;-67
2023/09/26 04:53:12;;;;;;;21.38;5.78;;;;;;;18.68;54.62;94983.47;4152647;28;20503;-71
2023/09/26 04:55:14;;;;;;;20.45;5.88;;;;;;;18.65;54.76;94986.53;4152780;28;20052;-69
2023/09/26 04:57:16;;;;;;;15.98;5.13;;;;;;;18.59;55.24;94992.66;4155223;28;20463;-70
2023/09/26 04:59:18;;;;;;;23.00;6.43;;;;;;;18.65;55.48;94988.34;4156134;28;20085;-72
2023/09/26 05:01:24;;;;;;;14.25;5.40;;;;;;;18.68;55.19;94987.97;4161644;28;20414;-72
2023/09/26 05:03:27;;;;;;;17.00;5.88;;;;;;;18.73;56.14;94988.97;4140170;28;20222;-70
2023/09/26 05:05:29;;;;;;;21.88;6.05;;;;;;;18.77;55.80;94982.25;4162249;28;20060;-72
2023/09/26 05:07:34;;;;;;;24.92;5.30;;;;;;;18.87;55.02;94979.25;4161518;28;20061;-71
2023/09/26 05:09:37;;;;;;;12.70;5.07;;;;;;;18.97;55.31;94981.47;4168717;28;20103;-70
2023/09/26 05:11:39;;;;;;;23.08;6.15;;;;;;;19.03;55.48;94980.66;4170591;28;20164;-70
2023/09/26 05:13:42;;;;;;;21.92;5.10;;;;;;;19.10;54.02;94992.13;4165496;28;20045;-70
2023/09/26 05:15:44;;;;;;;21.58;5.00;;;;;;;19.23;54.70;94991.28;4163639;28;20120;-72
2023/09/26 05:17:48;;;;;;;23.08;5.53;;;;;;;19.38;53.98;94981.25;4150199;28;20046;-69
2023/09/26 05:19:51;;;;;;;15.85;4.85;;;;;;;19.44;52.69;94993.72;4163461;28;20523;-71
2023/09/26 05:21:52;;;;;;;19.08;5.13;;;;;;;19.48;52.47;94993.28;4159158;28;20049;-69
2023/09/26 05:23:55;;;;;;;17.88;4.78;;;;;;;19.49;52.44;94990.44;4165476;28;20057;-72
2023/09/26 05:26:08;;;;;;;18.45;5.22;;;;;;;19.47;52.01;94991.66;4160414;28;20050;-70
2023/09/26 05:28:14;;;;;;;13.50;4.70;;;;;;;19.46;52.35;94998.81;4161146;28;20060;-69
2023/09/26 05:30:16;;;;;;;21.42;5.15;;;;;;;19.52;52.48;94991.84;4153686;28;20057;-70
2023/09/26 05:32:18;;;;;;;20.55;5.20;;;;;;;19.59;52.07;94993.47;4150783;28;20058;-70
2023/09/26 05:34:20;;;;;;;19.52;5.03;;;;;;;19.65;51.94;95003.25;4151321;28;20077;-70
2023/09/26 05:36:22;;;;;;;20.73;5.25;;;;;;;19.73;51.55;94990.81;4165846;28;20140;-69
2023/09/26 05:38:25;;;;;;;21.52;4.70;;;;;;;19.81;51.59;94991.41;4163925;28;20136;-69
2023/09/26 05:40:27;;;;;;;25.50;4.90;;;;;;;19.89;51.51;94998.31;4164396;28;20185;-71
2023/09/26 05:42:29;;;;;;;25.35;5.25;;;;;;;19.96;51.26;94995.66;4167019;28;20055;-70
2023/09/26 05:44:31;;;;;;;18.98;5.40;;;;;;;20.07;51.10;95002.16;4163902;28;20055;-69
2023/09/26 05:46:34;;;;;;;23.95;5.63;;;;;;;20.14;50.86;95000.31;4157355;28;20108;-70
2023/09/26 05:48:39;;;;;;;21.73;5.47;;;;;;;20.25;50.73;94995.13;4152522;28;20080;-70
2023/09/26 05:50:41;;;;;;;25.33;5.00;;;;;;;20.19;50.54;95003.13;4161069;28;20476;-68
2023/09/26 05:52:43;;;;;;;24.65;5.28;;;;;;;20.39;50.55;94998.56;4156403;28;20076;-70
2023/09/26 05:54:45;;;;;;;18.00;5.00;;;;;;;20.50;50.32;94998.88;4161059;28;20124;-70
2023/09/26 05:56:46;;;;;;;26.35;4.93;;;;;;;20.53;49.80;94999.28;4157070;28;20049;-71
2023/09/26 05:58:49;;;;;;;22.38;6.65;;;;;;;20.57;50.32;95003.19;4153361;28;20132;-70
2023/09/26 06:00:53;;;;;;;;;;;;;;;20.61;50.10;95003.59;4161642;28;20056;-69
2023/09/26 06:02:56;;;;;;;23.60;4.53;;;;;;;20.52;49.66;95003.00;4162714;28;19920;-70
2023/09/26 06:04:58;;;;;;;14.65;4.43;;;;;;;20.62;49.45;95005.19;4162727;28;20084;-71
2023/09/26 06:06:59;;;;;;;16.90;5.68;;;;;;;20.54;49.74;95011.56;4166058;28;20084;-72
2023/09/26 06:09:02;;;;;;;16.30;4.85;;;;;;;20.60;49.87;95015.25;4173669;28;20056;-71
2023/09/26 06:11:04;;;;;;;20.45;4.90;;;;;;;20.68;49.76;95017.66;4175085;28;20136;-70
2023/09/26 06:13:06;;;;;;;25.92;5.10;;;;;;;20.81;49.75;95012.25;4170167;28;20164;-70
2023/09/26 06:15:11;;;;;;;21.08;5.00;;;;;;;20.92;49.58;95009.94;4173745;28;20930;-70
2023/09/26 06:17:13;;;;;;;19.30;4.65;;;;;;;21.06;49.32;95019.47;4162802;28;20063;-72
2023/09/26 06:19:15;;;;;;;14.27;4.65;;;;;;;21.19;49.03;95014.03;4172416;28;20052;-71
2023/09/26 06:21:18;;;;;;;11.85;4.47;;;;;;;21.16;48.98;95014.44;4162218;28;20407;-68
2023/09/26 06:23:20;;;;;;;21.58;4.43;;;;;;;21.02;48.79;95023.59;4153702;28;20041;-69
2023/09/26 06:25:22;;;;;;;20.58;4.72;;;;;;;21.01;49.01;95013.94;4159028;28;20473;-71
2023/09/26 06:27:24;;;;;;;17.85;4.35;;;;;;;20.98;48.79;95011.72;4162157;28;20041;-71
2023/09/26 06:29:26;;;;;;;19.85;4.25;;;;;;;21.05;48.92;95012.50;4176408;28;20088;-69
2023/09/26 06:31:29;;;;;;;17.90;4.53;;;;;;;21.04;49.00;95016.19;4176042;28;20048;-70
2023/09/26 06:33:31;;;;;;;15.23;5.07;;;;;;;20.85;49.14;95009.97;4166459;28;20080;-71
2023/09/26 06:35:33;;;;;;;17.45;5.15;;;;;;;20.77;49.77;95013.69;4160921;28;20053;-69
2023/09/26 06:37:37;;;;;;;22.92;5.00;;;;;;;20.80;49.97;95015.13;4175143;28;20049;-71
2023/09/26 06:39:40;;;;;;;25.23;5.75;;;;;;;20.85;49.61;95007.31;4170673;28;20153;-71
2023/09/26 06:41:42;;;;;;;23.83;5.20;;;;;;;20.88;49.72;95014.84;4171305;28;20782;-70
2023/09/26 06:43:44;;;;;;;16.30;4.75;;;;;;;20.93;49.86;95007.06;4162455;28;20052;-69
2023/09/26 06:45:46;;;;;;;21.92;4.80;;;;;;;21.03;49.69;95018.03;4165043;28;20041;-71
2023/09/26 06:47:48;;;;;;;21.90;5.75;;;;;;;20.92;50.11;95009.94;4167856;28;20041;-71
2023/09/26 06:49:56;;;;;;;17.23;4.65;;;;;;;20.82;50.33;95013.06;4162567;28;20042;-71
2023/09/26 06:51:58;;;;;;;30.10;6.45;;;;;;;20.92;50.37;95015.25;4164769;28;20108;-72
2023/09/26 06:54:04;;;;;;;20.13;4.40;;;;;;;21.06;50.10;95011.47;4172014;28;20514;-70
2023/09/26 06:56:07;;;;;;;;;;;;;;;21.22;50.12;95010.91;4161910;28;20132;-69
2023/09/26 06:58:10;;;;;;;23.05;4.90;;;;;;;21.35;49.73;95009.19;4161248;28;19929;-72
2023/09/26 07:00:13;;;;;;;24.27;5.03;;;;;;;21.43;49.62;95011.59;4163628;28;20045;-71
2023/09/26 07:02:16;;;;;;;15.63;4.93;;;;;;;21.49;49.27;95008.06;4157995;28;20053;-73
2023/09/26 07:04:21;;;;;;;15.88;4.95;;;;;;;21.56;49.30;95018.66;4162540;28;20168;-71
2023/09/26 07:06:25;;;;;;;17.90;5.25;;;;;;;21.31;49.50;95018.66;4161792;28;20123;-71
2023/09/26 07:08:26;;;;;;;16.83;4.57;;;;;;;21.12;49.95;95015.09;4162098;28;20046;-71
2023/09/26 07:10:28;;;;;;;18.30;4.90;;;;;;;21.17;49.87;95024.09;4168858;28;20044;-72
2023/09/26 07:12:32;;;;;;;17.77;4.68;;;;;;;21.23;49.72;95020.56;4150047;28;20045;-71
2023/09/26 07:14:35;;;;;;;15.88;4.70;;;;;;;21.36;49.81;95016.13;4162860;28;20279;-70
2023/09/26 07:16:38;;;;;;;18.92;5.00;;;;;;;21.15;50.14;95023.47;4159618;28;20096;-68
2023/09/26 07:18:41;;;;;;;20.90;5.22;;;;;;;20.74;50.61;95018.66;4151543;28;20129;-70
2023/09/26 07:20:47;;;;;;;15.88;4.63;;;;;;;20.83;50.85;95028.00;4164207;28;20057;-69
2023/09/26 07:22:49;;;;;;;16.95;4.40;;;;;;;20.86;50.94;95017.75;4160871;28;20140;-70
2023/09/26 07:24:51;;;;;;;18.52;5.03;;;;;;;20.91;50.81;95013.59;4164822;28;20484;-72
2023/09/26 07:26:55;;;;;;;22.77;5.20;;;;;;;20.78;51.20;95010.03;4172131;28;20423;-70
2023/09/26 07:29:00;;;;;;;14.52;4.00;;;;;;;20.94;51.16;95014.00;4176645;28;20147;-72
2023/09/26 07:31:04;;;;;;;10.95;4.90;;;;;;;20.89;50.67;95015.66;4161672;28;20652;-72
2023/09/26 07:33:06;;;;;;;18.38;4.68;;;;;;;20.91;50.44;95014.44;4155831;28;20489;-70
2023/09/26 07:35:09;;;;;;;17.35;4.80;;;;;;;21.11;50.50;95016.94;4146663;28;20065;-71
2023/09/26 07:37:11;;;;;;;19.35;5.65;;;;;;;21.28;49.81;95003.91;4146769;28;20092;-71
2023/09/26 07:39:16;;;;;;;19.23;5.47;;;;;;;21.44;49.07;95013.22;4149757;28;20547;-72
2023/09/26 07:41:18;;;;;;;17.45;4.88;;;;;;;21.44;49.35;95013.22;4162254;28;20055;-70
2023/09/26 07:43:20;;;;;;;16.83;4.35;;;;;;;21.43;49.10;95008.94;4152193;28;20136;-69
2023/09/26 07:45:22;;;;;;;15.95;4.97;;;;;;;21.23;49.40;94999.25;4159121;28;20064;-73
2023/09/26 07:47:24;;;;;;;15.18;4.93;;;;;;;21.34;49.24;95003.03;4161746;28;20049;-70
2023/09/26 07:49:26;;;;;;;23.52;5.03;;;;;;;21.44;49.04;95000.69;4161445;28;20053;-71
2023/09/26 07:51:30;;;;;;;23.02;4.85;;;;;;;21.49;49.02;94997.41;4162309;28;20136;-74
2023/09/26 07:53:37;;;;;;;22.40;5.13;;;;;;;21.44;49.02;94986.56;4162044;28;20095;-75
2023/09/26 07:55:40;;;;;;;18.05;5.03;;;;;;;21.56;48.94;94997.34;4162138;28;20518;-68
2023/09/26 07:57:41;;;;;;;18.95;5.50;;;;;;;21.82;48.41;94998.91;4153416;28;20573;-71
2023/09/26 07:59:44;;;;;;;16.25;4.93;;;;;;;21.95;47.69;94990.75;4157726;28;20149;-71
2023/09/26 08:01:46;;;;;;;15.15;4.82;;;;;;;22.08;47.93;94992.47;4164646;28;20334;-70
2023/09/26 08:03:49;;;;;;;15.73;4.75;;;;;;;21.60;47.38;94990.53;4151485;28;20042;-72
2023/09/26 08:06:18;;;;;;;16.48;4.60;;;;;;;20.94;49.30;94997.22;4158655;28;20116;-71
2023/09/26 08:08:21;;;;;;;15.02;4.55;;;;;;;20.79;49.67;94998.31;4156597;28;20290;-72
2023/09/26 08:10:24;;;;;;;18.42;5.10;;;;;;;20.81;49.45;94998.94;4162218;28;20045;-70
2023/09/26 08:12:27;;;;;;;27.48;5.55;;;;;;;20.79;49.70;94995.66;4155906;28;20044;-70
2023/09/26 08:14:29;;;;;;;17.60;4.85;;;;;;;20.82;49.63;94995.25;4161233;28;20045;-70
2023/09/26 08:16:31;;;;;;;16.70;4.93;;;;;;;20.95;49.21;94993.50;4161307;28;20049;-70
2023/09/26 08:18:33;;;;;;;23.70;6.03;;;;;;;20.80;49.11;94992.00;4158468;28;20794;-70
2023/09/26 08:20:35;;;;;;;18.17;4.65;;;;;;;20.73;49.09;94985.06;4161818;28;20539;-70
2023/09/26 08:22:41;;;;;;;16.80;4.47;;;;;;;20.98;49.15;94982.44;4162855;28;20060;-70
2023/09/26 08:24:42;;;;;;;18.35;4.78;;;;;;;21.15;48.85;94969.41;4170785;28;20041;-70
2023/09/26 08:26:44;;;;;;;12.10;5.18;;;;;;;21.18;48.19;94974.28;4170561;28;20136;-70
2023/09/26 08:28:46;;;;;;;13.02;4.68;;;;;;;21.28;47.40;94975.41;4167335;28;20485;-69
2023/09/26 08:30:48;;;;;;;19.80;5.82;;;;;;;21.18;47.65;94968.94;4161458;28;20400;-70
2023/09/26 08:32:50;;;;;;;18.95;5.28;;;;;;;21.16;47.83;94974.47;4152786;28;20456;-71
2023/09/26 08:34:54;;;;;;;17.15;5.28;;;;;;;21.38;47.16;94966.94;4168964;28;20128;-70
2023/09/26 08:36:57;;;;;;;15.65;5.60;;;;;;;21.55;47.25;94963.72;4169814;28;20042;-71
2023/09/26 08:38:59;;;;;;;19.48;5.75;;;;;;;21.58;47.06;94965.94;4162867;28;20124;-70
2023/09/26 08:41:05;;;;;;;13.82;4.97;;;;;;;21.80;47.20;94963.66;4166038;28;20045;-70
2023/09/26 08:43:07;;;;;;;20.17;5.20;;;;;;;22.00;45.84;94958.88;4159151;28;20064;-71
2023/09/26 08:45:09;;;;;;;20.85;4.90;;;;;;;22.01;45.65;94965.88;4165737;28;20088;-72
2023/09/26 08:47:11;;;;;;;12.43;4.93;;;;;;;22.24;45.77;94973.22;4157225;28;20048;-70
2023/09/26 08:49:16;;;;;;;12.65;4.03;;;;;;;22.36;44.43;94977.78;4158023;28;20096;-71
2023/09/26 08:51:18;;;;;;;15.88;4.38;;;;;;;22.00;44.92;94977.56;4152887;28;20053;-72
2023/09/26 08:53:20;;;;;;;11.88;3.97;;;;;;;22.10;44.28;94979.72;4165701;28;20694;-71
2023/09/26 08:55:25;;;;;;;15.32;4.30;;;;;;;22.48;44.25;94966.13;4156504;28;20049;-73
2023/09/26 08:57:29;;;;;;;19.45;4.40;;;;;;;22.72;43.63;94960.84;4155963;28;20084;-72
2023/09/26 08:59:32;;;;;;;21.50;5.00;;;;;;;22.97;42.71;94970.53;4163806;28;20060;-72
2023/09/26 09:01:34;;;;;;;17.15;4.22;;;;;;;23.05;42.29;94970.22;4157371;28;20049;-71
2023/09/26 09:03:36;;;;;;;16.40;4.60;;;;;;;22.82;42.43;94974.47;4168600;28;20131;-72
2023/09/26 09:05:40;;;;;;;19.27;3.80;;;;;;;22.65;42.93;94970.78;4164389;28;20046;-73
2023/09/26 09:07:42;;;;;;;14.63;4.25;;;;;;;22.83;42.73;94970.75;4162509;28;20160;-74
2023/09/26 09:10:04;;;;;;;18.33;5.32;;;;;;;22.71;42.76;94964.53;4162440;28;20049;-72
2023/09/26 09:12:26;;;;;;;12.60;3.92;;;;;;;22.48;43.57;94965.31;4162205;28;20102;-70
2023/09/26 09:14:33;;;;;;;22.65;4.70;;;;;;;22.33;44.08;94959.53;4164957;28;20115;-72
2023/09/26 09:16:36;;;;;;;16.35;5.47;;;;;;;22.70;43.75;94971.75;4164668;28;20081;-71
2023/09/26 09:18:44;;;;;;;14.30;4.43;;;;;;;22.98;42.19;94958.81;4159924;28;20049;-68
2023/09/26 09:20:47;;;;;;;17.40;5.65;;;;;;;23.09;42.23;94960.72;4164366;28;20057;-70
2023/09/26 09:23:18;;;;;;;15.85;4.57;;;;;;;23.05;42.16;94968.38;4158791;28;20408;-73
2023/09/26 09:25:29;;;;;;;20.30;4.00;;;;;;;23.19;41.48;94955.63;4171147;28;20048;-71
2023/09/26 09:27:31;;;;;;;13.73;4.00;;;;;;;23.20;42.00;94954.56;4174567;28;20106;-69
2023/09/26 09:29:33;;;;;;;11.00;3.85;;;;;;;23.50;41.90;94953.63;4163194;28;20053;-72
2023/09/26 09:31:34;;;;;;;17.73;4.90;;;;;;;23.78;41.24;94954.81;4164708;28;20502;-70
2023/09/26 09:33:37;;;;;;;16.42;3.95;;;;;;;23.71;40.99;94953.03;4155093;28;20405;-71